createdAt,value
2018-12-21T00:01:56.491Z,3.93
2018-12-21T00:04:22.481Z,4.13
2018-12-21T00:06:48.450Z,3.60
2018-12-21T00:09:14.448Z,4.27
2018-12-21T00:11:40.408Z,4.10
2018-12-21T00:14:07.174Z,4.07
2018-12-21T00:16:33.148Z,4.23
2018-12-21T00:18:59.127Z,4.00
2018-12-21T00:21:25.089Z,4.37
2018-12-21T00:23:51.064Z,4.13
2018-12-21T00:26:17.747Z,5.37
2018-12-21T00:28:43.730Z,5.07
2018-12-21T00:31:10.459Z,4.83
2018-12-21T00:33:37.182Z,5.20
2018-12-21T00:36:03.155Z,5.33
2018-12-21T00:38:29.137Z,4.43
2018-12-21T00:40:55.092Z,4.63
2018-12-21T00:43:21.072Z,4.50
2018-12-21T00:45:47.019Z,5.33
2018-12-21T00:48:13.814Z,4.50
2018-12-21T00:50:39.769Z,5.33
2018-12-21T00:53:05.717Z,5.03
2018-12-21T00:55:31.692Z,4.80
2018-12-21T00:57:57.647Z,5.27
2018-12-21T01:00:23.646Z,4.50
2018-12-21T01:02:50.351Z,4.77
2018-12-21T01:05:16.349Z,4.60
2018-12-21T01:07:42.321Z,4.10
2018-12-21T01:10:08.313Z,4.17
2018-12-21T01:12:34.260Z,4.30
2018-12-21T01:15:00.237Z,3.93
2018-12-21T01:17:26.904Z,4.17
2018-12-21T01:19:52.870Z,4.67
2018-12-21T01:22:18.814Z,3.50
2018-12-21T01:24:45.521Z,4.40
2018-12-21T01:27:11.480Z,4.13
2018-12-21T01:29:37.462Z,3.77
2018-12-21T01:32:03.418Z,3.90
2018-12-21T01:34:29.395Z,3.57
2018-12-21T01:36:55.343Z,3.53
2018-12-21T01:39:21.316Z,3.33
2018-12-21T01:41:47.273Z,3.27
2018-12-21T01:44:13.269Z,3.40
2018-12-21T01:46:39.244Z,3.37
2018-12-21T01:49:05.958Z,3.43
2018-12-21T01:51:31.897Z,3.50
2018-12-21T01:53:57.891Z,3.60
2018-12-21T01:56:23.838Z,3.50
2018-12-21T01:58:50.535Z,4.47
2018-12-21T02:01:16.508Z,4.43
2018-12-21T02:03:43.229Z,3.50
2018-12-21T02:06:09.193Z,4.60
2018-12-21T02:08:35.173Z,4.67
2018-12-21T02:11:01.183Z,4.00
2018-12-21T02:13:27.188Z,4.67
2018-12-21T02:15:53.129Z,4.27
2018-12-21T02:18:19.147Z,4.33
2018-12-21T02:20:45.110Z,4.33
2018-12-21T02:23:11.098Z,4.17
2018-12-21T02:25:37.067Z,4.37
2018-12-21T02:28:03.048Z,3.83
2018-12-21T02:30:29.011Z,3.87
2018-12-21T02:32:55.746Z,4.27
2018-12-21T02:35:22.420Z,4.37
2018-12-21T02:37:48.403Z,4.73
2018-12-21T02:40:15.092Z,4.63
2018-12-21T02:42:41.095Z,4.80
2018-12-21T02:45:07.048Z,4.40
2018-12-21T02:47:33.079Z,4.77
2018-12-21T02:49:59.044Z,4.53
2018-12-21T02:52:25.754Z,4.67
2018-12-21T02:54:51.717Z,4.83
2018-12-21T02:57:18.424Z,5.10
2018-12-21T02:59:44.373Z,4.03
2018-12-21T03:02:10.351Z,4.17
2018-12-21T03:04:36.294Z,4.63
2018-12-21T03:07:02.267Z,3.53
2018-12-21T03:09:28.240Z,4.83
2018-12-21T03:11:54.220Z,4.33
2018-12-21T03:14:20.167Z,4.53
2018-12-21T03:16:46.114Z,4.17
2018-12-21T03:19:12.853Z,4.93
2018-12-21T03:21:39.548Z,4.63
2018-12-21T03:24:05.525Z,4.77
2018-12-21T03:26:32.229Z,4.37
2018-12-21T03:28:58.215Z,4.63
2018-12-21T03:31:24.168Z,4.23
2018-12-21T03:33:50.163Z,4.20
2018-12-21T03:36:16.134Z,5.10
2018-12-21T03:38:42.110Z,4.97
2018-12-21T03:41:08.070Z,5.03
2018-12-21T03:43:34.035Z,4.67
2018-12-21T03:46:00.003Z,5.20
2018-12-21T03:48:26.725Z,4.40
2018-12-21T03:50:52.774Z,4.70
2018-12-21T03:53:18.718Z,4.87
2018-12-21T03:55:44.677Z,4.07
2018-12-21T03:58:10.620Z,4.57
2018-12-21T04:00:36.640Z,5.57
2018-12-21T04:03:02.826Z,4.30
2018-12-21T04:05:29.539Z,4.33
2018-12-21T04:07:55.499Z,4.33
2018-12-21T04:10:21.515Z,4.00
2018-12-21T04:12:47.494Z,4.40
2018-12-21T04:15:13.527Z,4.00
2018-12-21T04:17:39.482Z,4.57
2018-12-21T04:20:06.210Z,3.80
2018-12-21T04:22:34.208Z,3.83
2018-12-21T04:24:59.693Z,3.80
2018-12-21T04:27:26.381Z,4.40
2018-12-21T04:29:52.340Z,4.10
2018-12-21T04:32:18.309Z,4.33
2018-12-21T04:34:44.273Z,4.20
2018-12-21T04:37:10.245Z,3.83
2018-12-21T04:39:36.235Z,3.83
2018-12-21T04:42:02.219Z,4.13
2018-12-21T04:44:28.196Z,3.70
2018-12-21T04:46:54.921Z,4.20
2018-12-21T04:49:20.863Z,3.57
2018-12-21T04:51:47.564Z,3.20
2018-12-21T04:54:13.532Z,3.50
2018-12-21T04:56:40.245Z,3.80
2018-12-21T04:59:06.203Z,3.43
2018-12-21T05:01:32.197Z,3.13
2018-12-21T05:03:58.165Z,3.40
2018-12-21T05:06:24.144Z,3.60
2018-12-21T05:08:50.861Z,3.77
2018-12-21T05:11:16.844Z,3.33
2018-12-21T05:13:42.812Z,3.63
2018-12-21T05:16:08.822Z,3.67
2018-12-21T05:18:34.761Z,2.87
2018-12-21T05:21:00.732Z,2.93
2018-12-21T05:23:26.695Z,2.57
2018-12-21T05:25:52.690Z,3.10
2018-12-21T05:28:18.644Z,2.93
2018-12-21T05:30:44.654Z,3.17
2018-12-21T05:33:10.611Z,3.10
2018-12-21T05:35:36.580Z,2.80
2018-12-21T05:38:02.525Z,3.03
2018-12-21T05:40:28.491Z,3.03
2018-12-21T05:42:55.206Z,2.73
2018-12-21T05:45:21.181Z,2.30
2018-12-21T05:47:47.178Z,2.90
2018-12-21T05:50:13.157Z,2.60
2018-12-21T05:52:39.138Z,2.87
2018-12-21T05:55:05.079Z,2.50
2018-12-21T05:57:31.071Z,2.43
2018-12-21T05:59:57.764Z,2.63
2018-12-21T06:02:24.480Z,2.20
2018-12-21T06:04:50.452Z,2.00
2018-12-21T06:07:16.438Z,2.13
2018-12-21T06:09:42.422Z,2.40
2018-12-21T06:12:08.423Z,2.70
2018-12-21T06:14:35.113Z,2.43
2018-12-21T06:17:01.097Z,2.33
2018-12-21T06:19:27.794Z,2.57
2018-12-21T06:21:53.792Z,2.33
2018-12-21T06:24:19.733Z,2.43
2018-12-21T06:26:45.671Z,2.73
2018-12-21T06:29:11.667Z,2.93
2018-12-21T06:31:37.621Z,2.70
2018-12-21T06:34:03.618Z,2.37
2018-12-21T06:36:29.571Z,2.77
2018-12-21T06:38:55.548Z,2.60
2018-12-21T06:41:21.503Z,2.93
2018-12-21T06:43:47.473Z,2.83
2018-12-21T06:46:14.510Z,3.30
2018-12-21T06:48:40.202Z,3.17
2018-12-21T06:51:06.939Z,3.30
2018-12-21T06:53:32.895Z,3.53
2018-12-21T06:55:59.603Z,3.23
2018-12-21T06:58:25.541Z,3.57
2018-12-21T07:00:52.275Z,3.93
2018-12-21T07:03:18.213Z,3.57
2018-12-21T07:05:44.943Z,4.00
2018-12-21T07:08:11.634Z,3.93
2018-12-21T07:10:37.612Z,4.00
2018-12-21T07:13:04.298Z,4.37
2018-12-21T07:15:30.284Z,4.23
2018-12-21T07:17:56.981Z,4.23
2018-12-21T07:20:22.951Z,4.33
2018-12-21T07:22:48.949Z,4.70
2018-12-21T07:25:14.892Z,4.87
2018-12-21T07:27:40.873Z,4.77
2018-12-21T07:30:06.856Z,5.03
2018-12-21T07:32:32.822Z,5.10
2018-12-21T07:34:58.781Z,5.00
2018-12-21T07:37:25.484Z,6.50
2018-12-21T07:39:51.449Z,5.53
2018-12-21T07:42:17.418Z,4.93
2018-12-21T07:44:43.354Z,5.43
2018-12-21T07:47:09.324Z,5.57
2018-12-21T07:49:35.280Z,5.87
2018-12-21T07:52:01.257Z,5.10
2018-12-21T07:54:27.976Z,5.30
2018-12-21T07:56:54.722Z,5.40
2018-12-21T07:59:21.448Z,5.30
2018-12-21T08:01:47.435Z,5.70
2018-12-21T08:04:13.395Z,5.27
2018-12-21T08:06:39.503Z,5.20
2018-12-21T08:09:06.143Z,6.23
2018-12-21T08:11:32.107Z,5.80
2018-12-21T08:13:58.817Z,5.97
2018-12-21T08:16:24.779Z,5.97
2018-12-21T08:18:50.772Z,5.10
2018-12-21T08:21:16.718Z,5.97
2018-12-21T08:23:44.324Z,5.50
2018-12-21T08:26:08.717Z,5.37
2018-12-21T08:28:34.692Z,5.20
2018-12-21T08:31:00.645Z,6.03
2018-12-21T08:33:26.636Z,5.47
2018-12-21T08:35:53.336Z,5.53
2018-12-21T08:38:19.313Z,5.80
2018-12-21T08:40:45.273Z,5.37
2018-12-21T08:43:11.235Z,5.07
2018-12-21T08:45:37.955Z,5.77
2018-12-21T08:48:03.902Z,5.83
2018-12-21T08:50:29.903Z,4.93
2018-12-21T08:52:55.875Z,5.03
2018-12-21T08:55:21.844Z,5.30
2018-12-21T08:57:47.832Z,4.60
2018-12-21T09:00:13.829Z,4.63
2018-12-21T09:02:39.769Z,4.97
2018-12-21T09:05:05.774Z,5.07
2018-12-21T09:07:31.704Z,4.87
2018-12-21T09:09:57.650Z,4.47
2018-12-21T09:12:23.620Z,6.03
2018-12-21T09:14:50.306Z,4.67
2018-12-21T09:17:16.283Z,4.40
2018-12-21T09:19:42.990Z,4.30
2018-12-21T09:22:08.977Z,4.60
2018-12-21T09:24:34.925Z,4.67
2018-12-21T09:27:00.892Z,4.67
2018-12-21T09:29:27.591Z,4.07
2018-12-21T09:31:53.562Z,3.80
2018-12-21T09:34:19.543Z,4.10
2018-12-21T09:36:45.540Z,3.93
2018-12-21T09:39:11.517Z,3.63
2018-12-21T09:41:38.243Z,3.87
2018-12-21T09:44:04.199Z,3.80
2018-12-21T09:46:30.169Z,3.83
2018-12-21T09:48:56.112Z,3.03
2018-12-21T09:51:22.086Z,3.73
2018-12-21T09:53:48.040Z,3.30
2018-12-21T09:56:14.001Z,3.33
2018-12-21T09:58:40.705Z,3.80
2018-12-21T10:01:06.675Z,3.33
2018-12-21T10:03:32.638Z,3.60
2018-12-21T10:05:58.591Z,3.37
2018-12-21T10:08:25.327Z,3.43
2018-12-21T10:10:51.281Z,3.37
2018-12-21T10:13:17.251Z,3.17
2018-12-21T10:15:43.212Z,2.90
2018-12-21T10:18:09.933Z,2.97
2018-12-21T10:20:36.645Z,3.23
2018-12-21T10:23:02.652Z,2.93
2018-12-21T10:25:28.629Z,3.03
2018-12-21T10:27:54.569Z,2.50
2018-12-21T10:30:20.559Z,3.00
2018-12-21T10:32:46.552Z,2.43
2018-12-21T10:35:12.528Z,2.57
2018-12-21T10:37:39.221Z,2.73
2018-12-21T10:40:05.226Z,2.53
2018-12-21T10:42:31.202Z,2.27
2018-12-21T10:44:57.938Z,2.87
2018-12-21T10:47:23.880Z,2.50
2018-12-21T10:49:49.873Z,2.97
2018-12-21T10:52:15.824Z,2.93
2018-12-21T10:54:41.821Z,3.07
2018-12-21T10:57:07.779Z,2.57
2018-12-21T10:59:33.763Z,2.37
2018-12-21T11:01:59.712Z,2.83
2018-12-21T11:04:25.704Z,2.53
2018-12-21T11:06:51.666Z,3.03
2018-12-21T11:09:17.641Z,2.63
2018-12-21T11:11:43.631Z,3.17
2018-12-21T11:14:09.583Z,3.07
2018-12-21T11:16:35.581Z,2.90
2018-12-21T11:19:01.544Z,3.47
2018-12-21T11:21:27.540Z,3.07
2018-12-21T11:23:53.510Z,3.00
2018-12-21T11:26:20.257Z,3.20
2018-12-21T11:28:46.957Z,3.07
2018-12-21T11:31:12.926Z,2.87
2018-12-21T11:33:38.891Z,3.70
2018-12-21T11:36:05.606Z,3.60
2018-12-21T11:38:31.561Z,4.30
2018-12-21T11:40:57.552Z,4.33
2018-12-21T11:43:23.507Z,3.93
2018-12-21T11:45:49.488Z,4.57
2018-12-21T11:48:15.444Z,4.07
2018-12-21T11:50:41.417Z,4.00
2018-12-21T11:53:08.124Z,3.93
2018-12-21T11:55:34.104Z,3.47
2018-12-21T11:58:00.059Z,4.30
2018-12-21T12:00:26.051Z,4.13
2018-12-21T12:02:52.006Z,4.40
2018-12-21T12:05:17.986Z,4.10
2018-12-21T12:07:43.942Z,4.33
2018-12-21T12:10:09.941Z,4.00
2018-12-21T12:12:35.886Z,4.27
2018-12-21T12:15:01.886Z,3.73
2018-12-21T12:17:27.844Z,3.77
2018-12-21T12:19:53.804Z,3.83
2018-12-21T12:22:20.525Z,3.27
2018-12-21T12:24:52.717Z,3.70
2018-12-21T12:27:12.540Z,3.67
2018-12-21T12:29:38.506Z,3.30
2018-12-21T12:32:04.488Z,3.20
2018-12-21T12:34:30.445Z,3.27
2018-12-21T12:36:58.097Z,3.17
2018-12-21T12:39:23.195Z,3.33
2018-12-21T12:41:49.164Z,3.17
2018-12-21T12:44:15.110Z,3.70
2018-12-21T12:46:41.106Z,3.67
2018-12-21T12:49:07.076Z,4.30
2018-12-21T12:51:33.069Z,4.60
2018-12-21T12:53:59.027Z,4.53
2018-12-21T12:56:24.980Z,4.23
2018-12-21T12:58:51.687Z,3.70
2018-12-21T13:01:17.635Z,3.47
2018-12-21T13:03:44.349Z,3.13
2018-12-21T13:06:10.310Z,2.97
2018-12-21T13:08:36.286Z,2.60
2018-12-21T13:11:02.259Z,3.00
2018-12-21T13:13:28.237Z,3.03
2018-12-21T13:15:54.196Z,2.90
2018-12-21T13:18:20.905Z,2.97
2018-12-21T13:20:46.864Z,2.63
2018-12-21T13:23:12.841Z,3.07
2018-12-21T13:25:38.781Z,2.97
2018-12-21T13:28:04.747Z,2.60
2018-12-21T13:30:30.833Z,2.70
2018-12-21T13:32:57.549Z,2.63
2018-12-21T13:35:23.549Z,2.77
2018-12-21T13:37:49.524Z,3.07
2018-12-21T13:40:15.496Z,2.27
2018-12-21T13:42:41.449Z,2.07
2018-12-21T13:45:07.427Z,1.90
2018-12-21T13:47:33.376Z,1.80
2018-12-21T13:49:59.354Z,1.50
2018-12-21T13:52:25.301Z,1.67
2018-12-21T13:54:51.276Z,1.43
2018-12-21T13:57:17.238Z,1.50
2018-12-21T13:59:43.204Z,1.20
2018-12-21T14:02:09.151Z,1.50
2018-12-21T14:04:35.882Z,1.37
2018-12-21T14:07:01.824Z,1.27
2018-12-21T14:09:28.549Z,1.70
2018-12-21T14:11:54.483Z,1.67
2018-12-21T14:14:21.227Z,2.20
2018-12-21T14:16:47.183Z,1.90
2018-12-21T14:19:13.166Z,1.90
2018-12-21T14:21:39.853Z,2.27
2018-12-21T14:24:05.856Z,2.03
2018-12-21T14:26:31.805Z,2.30
2018-12-21T14:28:57.761Z,2.40
2018-12-21T14:31:24.493Z,1.80
2018-12-21T14:33:50.436Z,2.00
2018-12-21T14:36:17.175Z,1.70
2018-12-21T14:38:43.901Z,1.77
2018-12-21T14:41:09.892Z,1.80
2018-12-21T14:43:35.852Z,2.20
2018-12-21T14:46:02.562Z,1.63
2018-12-21T14:48:28.537Z,2.17
2018-12-21T14:50:54.489Z,1.70
2018-12-21T14:53:20.472Z,2.00
2018-12-21T14:55:47.160Z,2.00
2018-12-21T14:58:13.128Z,2.23
2018-12-21T15:00:39.829Z,1.80
2018-12-21T15:03:05.807Z,2.57
2018-12-21T15:05:31.754Z,2.23
2018-12-21T15:07:57.725Z,2.50
2018-12-21T15:10:24.435Z,2.20
2018-12-21T15:12:50.414Z,2.27
2018-12-21T15:15:16.370Z,1.97
2018-12-21T15:17:42.345Z,2.17
2018-12-21T15:20:09.040Z,2.50
2018-12-21T15:22:35.007Z,2.00
2018-12-21T15:25:01.711Z,2.27
2018-12-21T15:27:27.683Z,2.17
2018-12-21T15:29:53.644Z,2.20
2018-12-21T15:32:19.649Z,2.10
2018-12-21T15:34:45.585Z,2.57
2018-12-21T15:37:11.559Z,1.70
2018-12-21T15:39:38.264Z,1.93
2018-12-21T15:42:04.258Z,1.70
2018-12-21T15:44:30.218Z,1.27
2018-12-21T15:46:56.173Z,1.73
2018-12-21T15:49:22.160Z,1.40
2018-12-21T15:51:48.104Z,2.00
2018-12-21T15:54:14.115Z,1.70
2018-12-21T15:56:40.085Z,2.00
2018-12-21T15:59:06.063Z,2.07
2018-12-21T16:01:36.921Z,2.30
2018-12-21T16:03:59.555Z,1.47
2018-12-21T16:06:26.270Z,1.67
2018-12-21T16:08:52.257Z,1.13
2018-12-21T16:11:18.228Z,1.13
2018-12-21T16:13:44.211Z,1.30
2018-12-21T16:16:10.180Z,1.20
2018-12-21T16:18:36.881Z,1.87
2018-12-21T16:21:02.891Z,1.43
2018-12-21T16:23:28.829Z,1.47
2018-12-21T16:26:03.319Z,1.50
2018-12-21T16:28:20.858Z,1.37
2018-12-21T16:30:46.855Z,2.00
2018-12-21T16:33:12.805Z,1.70
2018-12-21T16:35:38.803Z,2.07
2018-12-21T16:38:04.767Z,1.67
2018-12-21T16:40:30.759Z,2.10
2018-12-21T16:42:56.717Z,2.03
2018-12-21T16:45:22.694Z,1.93
2018-12-21T16:47:48.663Z,2.00
2018-12-21T16:50:14.702Z,2.20
2018-12-21T16:52:40.679Z,2.13
2018-12-21T16:55:06.660Z,2.70
2018-12-21T16:57:32.604Z,2.93
2018-12-21T16:59:58.579Z,1.80
2018-12-21T17:02:24.514Z,2.37
2018-12-21T17:04:50.495Z,2.43
2018-12-21T17:07:16.452Z,1.93
2018-12-21T17:09:42.422Z,2.20
2018-12-21T17:12:08.405Z,2.10
2018-12-21T17:14:34.349Z,2.40
2018-12-21T17:17:01.072Z,3.27
2018-12-21T17:19:27.024Z,3.13
2018-12-21T17:21:53.309Z,2.10
2018-12-21T17:24:19.001Z,2.97
2018-12-21T17:26:45.004Z,2.83
2018-12-21T17:29:10.956Z,2.37
2018-12-21T17:31:36.929Z,1.97
2018-12-21T17:34:03.640Z,2.73
2018-12-21T17:36:29.616Z,2.60
2018-12-21T17:38:55.570Z,2.67
2018-12-21T17:41:21.558Z,2.77
2018-12-21T17:43:47.516Z,3.33
2018-12-21T17:46:13.497Z,2.47
2018-12-21T17:48:39.440Z,3.27
2018-12-21T17:51:05.408Z,2.30
2018-12-21T17:53:31.347Z,2.13
2018-12-21T17:55:58.063Z,2.17
2018-12-21T17:58:24.024Z,2.37
2018-12-21T18:00:50.021Z,1.90
2018-12-21T18:03:15.951Z,2.70
2018-12-21T18:05:42.677Z,1.90
2018-12-21T18:08:08.633Z,2.63
2018-12-21T18:10:34.604Z,2.40
2018-12-21T18:13:00.608Z,1.83
2018-12-21T18:15:26.556Z,1.53
2018-12-21T18:17:52.522Z,1.40
2018-12-21T18:20:19.227Z,1.70
2018-12-21T18:22:45.951Z,1.33
2018-12-21T18:25:11.928Z,1.53
2018-12-21T18:27:38.040Z,1.57
2018-12-21T18:30:03.913Z,0.97
2018-12-21T18:32:29.901Z,1.47
2018-12-21T18:34:55.847Z,1.10
2018-12-21T18:37:21.854Z,1.17
2018-12-21T18:39:47.810Z,1.50
2018-12-21T18:42:13.802Z,1.30
2018-12-21T18:44:39.747Z,1.27
2018-12-21T18:47:05.732Z,1.13
2018-12-21T18:49:31.692Z,1.43
2018-12-21T18:51:59.787Z,1.60
2018-12-21T18:54:24.449Z,1.47
2018-12-21T18:56:50.433Z,1.40
2018-12-21T18:59:16.392Z,1.63
2018-12-21T19:01:42.372Z,1.23
2018-12-21T19:04:09.092Z,1.70
2018-12-21T19:06:35.858Z,1.87
2018-12-21T19:09:01.877Z,1.60
2018-12-21T19:11:27.974Z,1.40
2018-12-21T19:13:53.942Z,1.73
2018-12-21T19:16:19.928Z,2.00
2018-12-21T19:18:45.896Z,1.97
2018-12-21T19:21:11.880Z,1.60
2018-12-21T19:23:37.843Z,1.40
2018-12-21T19:26:03.815Z,1.30
2018-12-21T19:28:30.554Z,1.60
2018-12-21T19:30:56.528Z,1.77
2018-12-21T19:33:22.515Z,2.00
2018-12-21T19:35:49.243Z,1.13
2018-12-21T19:38:16.049Z,1.70
2018-12-21T19:40:41.989Z,1.70
2018-12-21T19:43:08.051Z,1.43
2018-12-21T19:45:34.762Z,1.87
2018-12-21T19:48:00.746Z,1.60
2018-12-21T19:50:26.830Z,1.40
2018-12-21T19:52:53.566Z,1.37
2018-12-21T19:55:19.505Z,1.50
2018-12-21T19:57:46.220Z,1.40
2018-12-21T20:00:12.169Z,1.30
2018-12-21T20:02:38.163Z,1.47
2018-12-21T20:05:04.108Z,0.87
2018-12-21T20:07:30.828Z,0.93
2018-12-21T20:09:56.775Z,1.10
2018-12-21T20:12:23.465Z,1.10
2018-12-21T20:14:49.459Z,1.10
2018-12-21T20:17:15.411Z,0.90
2018-12-21T20:19:41.405Z,1.00
2018-12-21T20:22:07.362Z,1.33
2018-12-21T20:24:33.351Z,1.23
2018-12-21T20:26:59.311Z,0.87
2018-12-21T20:29:25.344Z,0.90
2018-12-21T20:31:51.277Z,0.70
2018-12-21T20:34:17.997Z,0.83
2018-12-21T20:36:43.975Z,0.70
2018-12-21T20:39:09.953Z,1.13
2018-12-21T20:41:35.929Z,1.00
2018-12-21T20:44:01.922Z,0.90
2018-12-21T20:46:28.625Z,0.70
2018-12-21T20:48:54.614Z,1.07
2018-12-21T20:51:20.572Z,1.27
2018-12-21T20:53:46.559Z,0.97
2018-12-21T20:56:12.539Z,0.90
2018-12-21T20:58:38.492Z,0.57
2018-12-21T21:01:04.478Z,0.90
2018-12-21T21:03:30.434Z,0.90
2018-12-21T21:05:56.406Z,0.57
2018-12-21T21:08:22.372Z,0.90
2018-12-21T21:10:49.086Z,0.67
2018-12-21T21:13:19.247Z,0.83
2018-12-21T21:15:41.069Z,0.90
2018-12-21T21:18:07.036Z,0.80
2018-12-21T21:20:32.997Z,1.00
2018-12-21T21:22:59.709Z,0.80
2018-12-21T21:25:25.681Z,0.90
2018-12-21T21:27:58.575Z,0.90
2018-12-21T21:30:24.539Z,0.80
2018-12-21T21:32:50.515Z,0.83
2018-12-21T21:35:16.492Z,1.10
2018-12-21T21:37:42.490Z,0.67
2018-12-21T21:40:08.452Z,0.40
2018-12-21T21:42:35.186Z,0.43
2018-12-21T21:45:01.894Z,0.50
2018-12-21T21:47:27.874Z,0.33
2018-12-21T21:49:53.839Z,0.70
2018-12-21T21:52:19.840Z,0.80
2018-12-21T21:54:45.793Z,0.40
2018-12-21T21:57:11.756Z,0.50
2018-12-21T21:59:37.757Z,0.60
2018-12-21T22:02:04.467Z,0.90
2018-12-21T22:04:30.446Z,1.00
2018-12-21T22:06:57.150Z,0.40
2018-12-21T22:09:23.129Z,0.47
2018-12-21T22:11:49.081Z,0.70
2018-12-21T22:14:15.052Z,0.60
2018-12-21T22:16:41.017Z,0.60
2018-12-21T22:19:07.014Z,0.70
2018-12-21T22:21:32.978Z,0.67
2018-12-21T22:23:58.961Z,0.50
2018-12-21T22:26:24.918Z,0.63
2018-12-21T22:28:50.908Z,0.40
2018-12-21T22:31:16.870Z,0.50
2018-12-21T22:33:42.832Z,0.40
2018-12-21T22:36:08.807Z,0.43
2018-12-21T22:38:34.749Z,0.40
2018-12-21T22:41:01.470Z,0.47
2018-12-21T22:43:27.424Z,0.37
2018-12-21T22:45:54.119Z,0.60
2018-12-21T22:48:20.080Z,0.50
2018-12-21T22:50:46.782Z,0.57
2018-12-21T22:53:12.732Z,0.50
2018-12-21T22:55:38.713Z,0.70
2018-12-21T22:58:04.675Z,0.57
2018-12-21T23:00:30.629Z,0.60
2018-12-21T23:02:56.600Z,0.73
2018-12-21T23:05:22.572Z,0.80
2018-12-21T23:07:49.293Z,0.77
2018-12-21T23:10:15.228Z,0.93
2018-12-21T23:12:41.941Z,0.90
2018-12-21T23:15:07.891Z,1.00
2018-12-21T23:17:33.881Z,0.50
2018-12-21T23:19:59.835Z,1.07
2018-12-21T23:22:26.567Z,0.77
2018-12-21T23:24:53.262Z,0.67
2018-12-21T23:27:19.237Z,0.60
2018-12-21T23:29:45.914Z,0.87
2018-12-21T23:32:11.885Z,0.80
2018-12-21T23:34:37.834Z,0.53
2018-12-21T23:37:03.798Z,0.60
2018-12-21T23:39:29.790Z,0.77
2018-12-21T23:41:55.740Z,0.87
2018-12-21T23:44:21.725Z,0.80
2018-12-21T23:46:47.705Z,0.87
2018-12-21T23:49:13.697Z,0.80
2018-12-21T23:51:39.658Z,0.50
2018-12-21T23:54:05.631Z,0.50
2018-12-21T23:56:31.593Z,0.73
2018-12-21T23:58:57.571Z,0.93
